sensor_id;sensor_type;location;lat;lon;timestamp;P1;durP1;ratioP1;P2;durP2;ratioP2
59607;SDS011;45426;44.726;10.390;2022-11-15T00:00:48;24.25;;;10.90;;
59607;SDS011;45426;44.726;10.390;2022-11-15T00:03:15;25.00;;;11.13;;
59607;SDS011;45426;44.726;10.390;2022-11-15T00:05:42;25.48;;;11.15;;
59607;SDS011;45426;44.726;10.390;2022-11-15T00:08:07;26.30;;;11.68;;
59607;SDS011;45426;44.726;10.390;2022-11-15T00:10:33;25.13;;;11.85;;
59607;SDS011;45426;44.726;10.390;2022-11-15T00:12:58;26.10;;;11.60;;
59607;SDS011;45426;44.726;10.390;2022-11-15T00:15:24;25.13;;;11.27;;
59607;SDS011;45426;44.726;10.390;2022-11-15T00:17:49;27.98;;;12.30;;
59607;SDS011;45426;44.726;10.390;2022-11-15T00:20:16;26.75;;;11.63;;
59607;SDS011;45426;44.726;10.390;2022-11-15T00:22:42;26.70;;;11.95;;
59607;SDS011;45426;44.726;10.390;2022-11-15T00:25:08;28.95;;;13.27;;
59607;SDS011;45426;44.726;10.390;2022-11-15T00:27:33;28.92;;;12.23;;
59607;SDS011;45426;44.726;10.390;2022-11-15T00:29:59;28.00;;;12.30;;
59607;SDS011;45426;44.726;10.390;2022-11-15T00:32:25;27.20;;;12.40;;
59607;SDS011;45426;44.726;10.390;2022-11-15T00:34:51;27.35;;;12.45;;
59607;SDS011;45426;44.726;10.390;2022-11-15T00:37:16;24.42;;;11.77;;
59607;SDS011;45426;44.726;10.390;2022-11-15T00:39:42;27.10;;;12.65;;
59607;SDS011;45426;44.726;10.390;2022-11-15T00:42:07;25.05;;;12.15;;
59607;SDS011;45426;44.726;10.390;2022-11-15T00:44:32;26.35;;;11.90;;
59607;SDS011;45426;44.726;10.390;2022-11-15T00:46:58;27.45;;;11.88;;
59607;SDS011;45426;44.726;10.390;2022-11-15T00:49:23;25.55;;;12.07;;
59607;SDS011;45426;44.726;10.390;2022-11-15T00:51:50;26.05;;;12.73;;
59607;SDS011;45426;44.726;10.390;2022-11-15T00:54:15;29.83;;;13.15;;
59607;SDS011;45426;44.726;10.390;2022-11-15T00:56:40;26.88;;;11.65;;
59607;SDS011;45426;44.726;10.390;2022-11-15T00:59:06;27.35;;;12.45;;
59607;SDS011;45426;44.726;10.390;2022-11-15T01:01:31;28.45;;;12.60;;
59607;SDS011;45426;44.726;10.390;2022-11-15T01:03:56;30.40;;;12.57;;
59607;SDS011;45426;44.726;10.390;2022-11-15T01:06:22;27.75;;;12.25;;
59607;SDS011;45426;44.726;10.390;2022-11-15T01:08:47;29.77;;;13.35;;
59607;SDS011;45426;44.726;10.390;2022-11-15T01:11:13;27.75;;;12.85;;
59607;SDS011;45426;44.726;10.390;2022-11-15T01:13:39;29.80;;;13.95;;
59607;SDS011;45426;44.726;10.390;2022-11-15T01:16:12;29.77;;;12.88;;
59607;SDS011;45426;44.726;10.390;2022-11-15T01:18:40;28.80;;;12.82;;
59607;SDS011;45426;44.726;10.390;2022-11-15T01:21:07;28.27;;;12.13;;
59607;SDS011;45426;44.726;10.390;2022-11-15T01:23:37;26.80;;;12.27;;
59607;SDS011;45426;44.726;10.390;2022-11-15T01:26:03;27.08;;;11.93;;
59607;SDS011;45426;44.726;10.390;2022-11-15T01:28:34;27.08;;;12.20;;
59607;SDS011;45426;44.726;10.390;2022-11-15T01:31:02;26.67;;;12.45;;
59607;SDS011;45426;44.726;10.390;2022-11-15T01:33:29;25.00;;;11.20;;
59607;SDS011;45426;44.726;10.390;2022-11-15T01:35:55;26.65;;;11.57;;
59607;SDS011;45426;44.726;10.390;2022-11-15T01:38:21;23.77;;;11.38;;
59607;SDS011;45426;44.726;10.390;2022-11-15T01:40:48;24.75;;;11.10;;
59607;SDS011;45426;44.726;10.390;2022-11-15T01:43:27;22.48;;;10.40;;
59607;SDS011;45426;44.726;10.390;2022-11-15T01:46:36;23.70;;;10.90;;
59607;SDS011;45426;44.726;10.390;2022-11-15T01:49:06;24.98;;;10.98;;
59607;SDS011;45426;44.726;10.390;2022-11-15T01:51:41;23.23;;;10.63;;
59607;SDS011;45426;44.726;10.390;2022-11-15T01:54:08;22.10;;;10.02;;
59607;SDS011;45426;44.726;10.390;2022-11-15T01:56:45;22.98;;;10.20;;
59607;SDS011;45426;44.726;10.390;2022-11-15T01:59:15;22.42;;;10.00;;
59607;SDS011;45426;44.726;10.390;2022-11-15T02:01:40;22.77;;;9.70;;
59607;SDS011;45426;44.726;10.390;2022-11-15T02:04:09;23.30;;;10.43;;
59607;SDS011;45426;44.726;10.390;2022-11-15T02:06:36;24.75;;;10.07;;
59607;SDS011;45426;44.726;10.390;2022-11-15T02:09:02;22.65;;;9.98;;
59607;SDS011;45426;44.726;10.390;2022-11-15T02:11:28;24.13;;;10.63;;
59607;SDS011;45426;44.726;10.390;2022-11-15T02:13:54;30.05;;;12.05;;
59607;SDS011;45426;44.726;10.390;2022-11-15T02:27:16;24.60;;;10.63;;
59607;SDS011;45426;44.726;10.390;2022-11-15T02:32:36;24.02;;;10.40;;
59607;SDS011;45426;44.726;10.390;2022-11-15T02:35:12;22.90;;;10.80;;
59607;SDS011;45426;44.726;10.390;2022-11-15T02:37:58;23.23;;;10.52;;
59607;SDS011;45426;44.726;10.390;2022-11-15T02:43:06;28.73;;;11.95;;
59607;SDS011;45426;44.726;10.390;2022-11-15T02:46:08;29.45;;;11.43;;
59607;SDS011;45426;44.726;10.390;2022-11-15T02:48:39;28.35;;;11.32;;
59607;SDS011;45426;44.726;10.390;2022-11-15T02:51:07;28.27;;;12.10;;
59607;SDS011;45426;44.726;10.390;2022-11-15T02:53:33;29.02;;;12.38;;
59607;SDS011;45426;44.726;10.390;2022-11-15T02:55:58;30.38;;;13.68;;
59607;SDS011;45426;44.726;10.390;2022-11-15T03:01:31;28.95;;;12.25;;
59607;SDS011;45426;44.726;10.390;2022-11-15T03:06:55;26.60;;;11.93;;
59607;SDS011;45426;44.726;10.390;2022-11-15T03:12:15;30.10;;;11.38;;
59607;SDS011;45426;44.726;10.390;2022-11-15T03:17:29;26.67;;;11.90;;
59607;SDS011;45426;44.726;10.390;2022-11-15T03:22:29;24.83;;;11.13;;
59607;SDS011;45426;44.726;10.390;2022-11-15T03:25:00;26.80;;;11.98;;
59607;SDS011;45426;44.726;10.390;2022-11-15T03:27:31;25.92;;;11.85;;
59607;SDS011;45426;44.726;10.390;2022-11-15T03:30:02;29.55;;;12.32;;
59607;SDS011;45426;44.726;10.390;2022-11-15T03:32:32;27.05;;;11.32;;
59607;SDS011;45426;44.726;10.390;2022-11-15T03:35:05;25.92;;;11.40;;
59607;SDS011;45426;44.726;10.390;2022-11-15T03:40:05;25.38;;;11.38;;
59607;SDS011;45426;44.726;10.390;2022-11-15T03:45:22;25.65;;;11.27;;
59607;SDS011;45426;44.726;10.390;2022-11-15T03:47:53;22.92;;;10.95;;
59607;SDS011;45426;44.726;10.390;2022-11-15T03:50:25;22.83;;;10.95;;
59607;SDS011;45426;44.726;10.390;2022-11-15T03:52:51;20.00;;;9.35;;
59607;SDS011;45426;44.726;10.390;2022-11-15T03:55:20;22.75;;;10.40;;
59607;SDS011;45426;44.726;10.390;2022-11-15T03:57:47;23.92;;;10.45;;
59607;SDS011;45426;44.726;10.390;2022-11-15T04:00:15;21.17;;;9.82;;
59607;SDS011;45426;44.726;10.390;2022-11-15T04:02:41;20.65;;;9.70;;
59607;SDS011;45426;44.726;10.390;2022-11-15T04:05:06;21.98;;;8.77;;
59607;SDS011;45426;44.726;10.390;2022-11-15T04:07:32;22.25;;;9.90;;
59607;SDS011;45426;44.726;10.390;2022-11-15T04:09:58;21.80;;;10.02;;
59607;SDS011;45426;44.726;10.390;2022-11-15T04:14:59;19.23;;;9.30;;
59607;SDS011;45426;44.726;10.390;2022-11-15T04:20:28;22.20;;;9.85;;
59607;SDS011;45426;44.726;10.390;2022-11-15T04:23:16;23.35;;;10.35;;
59607;SDS011;45426;44.726;10.390;2022-11-15T04:26:03;23.70;;;10.35;;
59607;SDS011;45426;44.726;10.390;2022-11-15T04:28:30;22.40;;;10.27;;
59607;SDS011;45426;44.726;10.390;2022-11-15T04:30:56;25.20;;;11.25;;
59607;SDS011;45426;44.726;10.390;2022-11-15T04:33:22;24.70;;;10.90;;
59607;SDS011;45426;44.726;10.390;2022-11-15T04:35:48;26.08;;;11.90;;
59607;SDS011;45426;44.726;10.390;2022-11-15T04:38:34;24.65;;;11.02;;
59607;SDS011;45426;44.726;10.390;2022-11-15T04:41:00;27.85;;;11.73;;
59607;SDS011;45426;44.726;10.390;2022-11-15T04:43:25;25.08;;;11.02;;
59607;SDS011;45426;44.726;10.390;2022-11-15T04:45:51;26.38;;;11.20;;
59607;SDS011;45426;44.726;10.390;2022-11-15T04:48:16;27.00;;;11.00;;
59607;SDS011;45426;44.726;10.390;2022-11-15T04:50:41;25.90;;;11.52;;
59607;SDS011;45426;44.726;10.390;2022-11-15T04:53:07;23.85;;;11.13;;
59607;SDS011;45426;44.726;10.390;2022-11-15T04:55:32;24.45;;;10.10;;
59607;SDS011;45426;44.726;10.390;2022-11-15T04:58:01;21.48;;;9.95;;
59607;SDS011;45426;44.726;10.390;2022-11-15T05:00:30;24.10;;;10.82;;
59607;SDS011;45426;44.726;10.390;2022-11-15T05:02:56;23.15;;;10.35;;
59607;SDS011;45426;44.726;10.390;2022-11-15T05:05:40;21.15;;;9.68;;
59607;SDS011;45426;44.726;10.390;2022-11-15T05:08:06;21.65;;;10.20;;
59607;SDS011;45426;44.726;10.390;2022-11-15T05:10:31;22.33;;;9.07;;
59607;SDS011;45426;44.726;10.390;2022-11-15T05:12:57;20.95;;;9.70;;
59607;SDS011;45426;44.726;10.390;2022-11-15T05:15:22;20.98;;;10.20;;
59607;SDS011;45426;44.726;10.390;2022-11-15T05:17:47;22.10;;;10.15;;
59607;SDS011;45426;44.726;10.390;2022-11-15T05:20:13;20.67;;;9.65;;
59607;SDS011;45426;44.726;10.390;2022-11-15T05:22:38;21.25;;;10.25;;
59607;SDS011;45426;44.726;10.390;2022-11-15T05:25:04;23.88;;;10.30;;
59607;SDS011;45426;44.726;10.390;2022-11-15T05:27:30;22.85;;;10.00;;
59607;SDS011;45426;44.726;10.390;2022-11-15T05:29:56;21.58;;;9.73;;
59607;SDS011;45426;44.726;10.390;2022-11-15T05:32:21;26.45;;;10.82;;
59607;SDS011;45426;44.726;10.390;2022-11-15T05:34:47;23.88;;;11.10;;
59607;SDS011;45426;44.726;10.390;2022-11-15T05:37:13;25.90;;;11.00;;
59607;SDS011;45426;44.726;10.390;2022-11-15T05:39:39;26.27;;;10.73;;
59607;SDS011;45426;44.726;10.390;2022-11-15T05:42:08;24.25;;;10.13;;
59607;SDS011;45426;44.726;10.390;2022-11-15T05:44:36;30.77;;;11.77;;
59607;SDS011;45426;44.726;10.390;2022-11-15T05:47:04;29.58;;;12.00;;
59607;SDS011;45426;44.726;10.390;2022-11-15T05:49:36;28.98;;;11.75;;
59607;SDS011;45426;44.726;10.390;2022-11-15T05:52:05;24.55;;;11.95;;
59607;SDS011;45426;44.726;10.390;2022-11-15T05:54:33;28.23;;;11.80;;
59607;SDS011;45426;44.726;10.390;2022-11-15T05:57:00;29.15;;;12.73;;
59607;SDS011;45426;44.726;10.390;2022-11-15T05:59:27;28.25;;;12.98;;
59607;SDS011;45426;44.726;10.390;2022-11-15T06:01:55;28.80;;;12.82;;
59607;SDS011;45426;44.726;10.390;2022-11-15T06:04:21;28.83;;;12.25;;
59607;SDS011;45426;44.726;10.390;2022-11-15T06:06:46;29.83;;;12.70;;
59607;SDS011;45426;44.726;10.390;2022-11-15T06:09:11;29.83;;;13.60;;
59607;SDS011;45426;44.726;10.390;2022-11-15T06:11:37;26.83;;;12.30;;
59607;SDS011;45426;44.726;10.390;2022-11-15T06:14:02;27.60;;;11.88;;
59607;SDS011;45426;44.726;10.390;2022-11-15T06:16:28;29.33;;;13.43;;
59607;SDS011;45426;44.726;10.390;2022-11-15T06:18:53;28.88;;;12.65;;
59607;SDS011;45426;44.726;10.390;2022-11-15T06:21:19;29.63;;;12.95;;
59607;SDS011;45426;44.726;10.390;2022-11-15T06:23:44;26.90;;;12.43;;
59607;SDS011;45426;44.726;10.390;2022-11-15T06:26:10;30.52;;;12.70;;
59607;SDS011;45426;44.726;10.390;2022-11-15T06:28:35;27.48;;;13.02;;
59607;SDS011;45426;44.726;10.390;2022-11-15T06:31:05;28.45;;;12.90;;
59607;SDS011;45426;44.726;10.390;2022-11-15T06:33:31;26.30;;;12.10;;
59607;SDS011;45426;44.726;10.390;2022-11-15T06:36:03;31.38;;;12.82;;
59607;SDS011;45426;44.726;10.390;2022-11-15T06:38:30;25.13;;;11.85;;
59607;SDS011;45426;44.726;10.390;2022-11-15T06:41:00;25.10;;;11.23;;
59607;SDS011;45426;44.726;10.390;2022-11-15T06:43:30;25.53;;;11.30;;
59607;SDS011;45426;44.726;10.390;2022-11-15T06:45:57;26.40;;;11.32;;
59607;SDS011;45426;44.726;10.390;2022-11-15T06:48:24;25.73;;;11.73;;
59607;SDS011;45426;44.726;10.390;2022-11-15T06:50:51;28.70;;;11.75;;
59607;SDS011;45426;44.726;10.390;2022-11-15T06:53:17;25.92;;;12.07;;
59607;SDS011;45426;44.726;10.390;2022-11-15T06:55:42;26.35;;;12.35;;
59607;SDS011;45426;44.726;10.390;2022-11-15T06:58:08;27.00;;;11.93;;
59607;SDS011;45426;44.726;10.390;2022-11-15T07:00:33;27.75;;;12.02;;
59607;SDS011;45426;44.726;10.390;2022-11-15T07:02:59;24.80;;;11.50;;
59607;SDS011;45426;44.726;10.390;2022-11-15T07:05:26;27.45;;;12.38;;
59607;SDS011;45426;44.726;10.390;2022-11-15T07:07:55;28.55;;;11.75;;
59607;SDS011;45426;44.726;10.390;2022-11-15T07:10:22;26.75;;;11.95;;
59607;SDS011;45426;44.726;10.390;2022-11-15T07:12:49;27.83;;;11.85;;
59607;SDS011;45426;44.726;10.390;2022-11-15T07:15:16;28.20;;;12.23;;
59607;SDS011;45426;44.726;10.390;2022-11-15T07:17:42;27.88;;;12.13;;
59607;SDS011;45426;44.726;10.390;2022-11-15T07:20:07;28.60;;;11.73;;
59607;SDS011;45426;44.726;10.390;2022-11-15T07:22:33;26.05;;;11.55;;
59607;SDS011;45426;44.726;10.390;2022-11-15T07:24:59;25.80;;;12.18;;
59607;SDS011;45426;44.726;10.390;2022-11-15T07:27:24;27.20;;;12.68;;
59607;SDS011;45426;44.726;10.390;2022-11-15T07:29:49;26.58;;;11.93;;
59607;SDS011;45426;44.726;10.390;2022-11-15T07:32:15;28.88;;;13.32;;
59607;SDS011;45426;44.726;10.390;2022-11-15T07:34:40;26.60;;;12.40;;
59607;SDS011;45426;44.726;10.390;2022-11-15T07:37:06;26.88;;;12.40;;
59607;SDS011;45426;44.726;10.390;2022-11-15T07:39:31;27.05;;;12.05;;
59607;SDS011;45426;44.726;10.390;2022-11-15T07:41:57;26.55;;;11.98;;
59607;SDS011;45426;44.726;10.390;2022-11-15T07:44:40;25.15;;;11.27;;
59607;SDS011;45426;44.726;10.390;2022-11-15T07:47:06;31.17;;;12.77;;
59607;SDS011;45426;44.726;10.390;2022-11-15T07:49:31;26.45;;;11.90;;
59607;SDS011;45426;44.726;10.390;2022-11-15T07:51:57;25.70;;;12.18;;
59607;SDS011;45426;44.726;10.390;2022-11-15T07:54:22;29.05;;;12.18;;
59607;SDS011;45426;44.726;10.390;2022-11-15T07:56:48;29.60;;;13.30;;
59607;SDS011;45426;44.726;10.390;2022-11-15T07:59:13;25.80;;;11.65;;
59607;SDS011;45426;44.726;10.390;2022-11-15T08:01:38;28.17;;;12.38;;
59607;SDS011;45426;44.726;10.390;2022-11-15T08:04:04;28.88;;;12.38;;
59607;SDS011;45426;44.726;10.390;2022-11-15T08:06:29;28.60;;;12.52;;
59607;SDS011;45426;44.726;10.390;2022-11-15T08:08:55;29.48;;;12.13;;
59607;SDS011;45426;44.726;10.390;2022-11-15T08:11:20;24.95;;;12.23;;
59607;SDS011;45426;44.726;10.390;2022-11-15T08:13:45;29.00;;;12.25;;
59607;SDS011;45426;44.726;10.390;2022-11-15T08:16:11;27.38;;;11.98;;
59607;SDS011;45426;44.726;10.390;2022-11-15T08:18:37;26.33;;;11.60;;
59607;SDS011;45426;44.726;10.390;2022-11-15T08:21:02;23.73;;;11.40;;
59607;SDS011;45426;44.726;10.390;2022-11-15T08:23:29;25.33;;;10.93;;
59607;SDS011;45426;44.726;10.390;2022-11-15T08:26:01;26.98;;;11.18;;
59607;SDS011;45426;44.726;10.390;2022-11-15T08:28:28;25.23;;;11.32;;
59607;SDS011;45426;44.726;10.390;2022-11-15T08:30:55;25.65;;;11.73;;
59607;SDS011;45426;44.726;10.390;2022-11-15T08:33:20;27.90;;;11.65;;
59607;SDS011;45426;44.726;10.390;2022-11-15T08:35:45;26.85;;;11.63;;
59607;SDS011;45426;44.726;10.390;2022-11-15T08:38:11;25.60;;;11.77;;
59607;SDS011;45426;44.726;10.390;2022-11-15T08:40:36;31.65;;;14.10;;
59607;SDS011;45426;44.726;10.390;2022-11-15T08:43:02;29.58;;;12.73;;
59607;SDS011;45426;44.726;10.390;2022-11-15T08:45:28;27.00;;;11.88;;
59607;SDS011;45426;44.726;10.390;2022-11-15T08:47:55;30.67;;;13.18;;
59607;SDS011;45426;44.726;10.390;2022-11-15T08:50:20;29.20;;;12.18;;
59607;SDS011;45426;44.726;10.390;2022-11-15T08:52:46;25.45;;;11.23;;
59607;SDS011;45426;44.726;10.390;2022-11-15T08:55:13;28.33;;;12.73;;
59607;SDS011;45426;44.726;10.390;2022-11-15T08:57:38;29.55;;;12.45;;
59607;SDS011;45426;44.726;10.390;2022-11-15T09:00:04;28.88;;;12.70;;
59607;SDS011;45426;44.726;10.390;2022-11-15T09:02:31;29.50;;;13.27;;
59607;SDS011;45426;44.726;10.390;2022-11-15T09:04:56;31.33;;;13.73;;
59607;SDS011;45426;44.726;10.390;2022-11-15T09:07:21;25.17;;;12.50;;
59607;SDS011;45426;44.726;10.390;2022-11-15T09:09:47;28.02;;;12.90;;
59607;SDS011;45426;44.726;10.390;2022-11-15T09:12:12;32.05;;;13.43;;
59607;SDS011;45426;44.726;10.390;2022-11-15T09:14:38;29.33;;;13.93;;
59607;SDS011;45426;44.726;10.390;2022-11-15T09:17:06;32.10;;;14.20;;
59607;SDS011;45426;44.726;10.390;2022-11-15T09:19:33;29.00;;;13.43;;
59607;SDS011;45426;44.726;10.390;2022-11-15T09:21:58;31.80;;;13.75;;
59607;SDS011;45426;44.726;10.390;2022-11-15T09:24:24;30.23;;;14.68;;
59607;SDS011;45426;44.726;10.390;2022-11-15T09:26:50;33.15;;;14.50;;
59607;SDS011;45426;44.726;10.390;2022-11-15T09:29:16;31.98;;;14.52;;
59607;SDS011;45426;44.726;10.390;2022-11-15T09:31:42;34.13;;;15.60;;
59607;SDS011;45426;44.726;10.390;2022-11-15T09:34:08;42.17;;;16.35;;
59607;SDS011;45426;44.726;10.390;2022-11-15T09:36:33;34.53;;;15.32;;
59607;SDS011;45426;44.726;10.390;2022-11-15T09:38:59;35.35;;;15.52;;
59607;SDS011;45426;44.726;10.390;2022-11-15T09:49:52;40.05;;;16.95;;
59607;SDS011;45426;44.726;10.390;2022-11-15T09:52:22;41.47;;;17.90;;
59607;SDS011;45426;44.726;10.390;2022-11-15T09:54:49;42.05;;;19.15;;
59607;SDS011;45426;44.726;10.390;2022-11-15T10:05:12;43.22;;;19.05;;
59607;SDS011;45426;44.726;10.390;2022-11-15T10:07:58;38.22;;;17.38;;
59607;SDS011;45426;44.726;10.390;2022-11-15T10:10:44;41.03;;;17.98;;
59607;SDS011;45426;44.726;10.390;2022-11-15T10:13:15;40.70;;;17.77;;
59607;SDS011;45426;44.726;10.390;2022-11-15T10:15:46;43.92;;;19.50;;
59607;SDS011;45426;44.726;10.390;2022-11-15T10:18:31;47.53;;;19.83;;
59607;SDS011;45426;44.726;10.390;2022-11-15T10:24:12;44.75;;;20.08;;
59607;SDS011;45426;44.726;10.390;2022-11-15T10:26:46;48.75;;;21.30;;
59607;SDS011;45426;44.726;10.390;2022-11-15T10:29:17;50.30;;;20.65;;
59607;SDS011;45426;44.726;10.390;2022-11-15T10:31:44;44.70;;;20.17;;
59607;SDS011;45426;44.726;10.390;2022-11-15T10:34:16;48.85;;;21.13;;
59607;SDS011;45426;44.726;10.390;2022-11-15T10:36:47;45.08;;;20.40;;
59607;SDS011;45426;44.726;10.390;2022-11-15T10:39:23;49.55;;;21.33;;
59607;SDS011;45426;44.726;10.390;2022-11-15T10:41:49;48.40;;;20.83;;
59607;SDS011;45426;44.726;10.390;2022-11-15T10:44:30;47.83;;;21.35;;
59607;SDS011;45426;44.726;10.390;2022-11-15T10:49:28;47.83;;;22.83;;
59607;SDS011;45426;44.726;10.390;2022-11-15T10:51:57;51.20;;;22.52;;
59607;SDS011;45426;44.726;10.390;2022-11-15T10:57:20;48.15;;;20.55;;
59607;SDS011;45426;44.726;10.390;2022-11-15T10:59:53;49.72;;;20.30;;
59607;SDS011;45426;44.726;10.390;2022-11-15T11:02:36;46.15;;;21.08;;
59607;SDS011;45426;44.726;10.390;2022-11-15T11:05:05;43.88;;;18.73;;
59607;SDS011;45426;44.726;10.390;2022-11-15T11:07:54;48.25;;;19.45;;
59607;SDS011;45426;44.726;10.390;2022-11-15T11:10:21;47.45;;;21.75;;
59607;SDS011;45426;44.726;10.390;2022-11-15T11:12:47;50.38;;;21.52;;
59607;SDS011;45426;44.726;10.390;2022-11-15T11:15:13;48.67;;;21.60;;
59607;SDS011;45426;44.726;10.390;2022-11-15T11:20:23;51.47;;;22.85;;
59607;SDS011;45426;44.726;10.390;2022-11-15T11:36:42;50.28;;;21.27;;
59607;SDS011;45426;44.726;10.390;2022-11-15T11:41:55;51.90;;;23.15;;
59607;SDS011;45426;44.726;10.390;2022-11-15T11:44:34;49.60;;;22.58;;
59607;SDS011;45426;44.726;10.390;2022-11-15T11:49:46;52.22;;;22.73;;
59607;SDS011;45426;44.726;10.390;2022-11-15T11:52:28;49.83;;;22.45;;
59607;SDS011;45426;44.726;10.390;2022-11-15T11:55:04;51.85;;;22.23;;
59607;SDS011;45426;44.726;10.390;2022-11-15T11:57:48;47.55;;;22.38;;
59607;SDS011;45426;44.726;10.390;2022-11-15T12:02:55;49.00;;;21.90;;
59607;SDS011;45426;44.726;10.390;2022-11-15T12:05:30;54.63;;;24.27;;
59607;SDS011;45426;44.726;10.390;2022-11-15T12:10:48;50.50;;;22.27;;
59607;SDS011;45426;44.726;10.390;2022-11-15T12:13:20;49.85;;;22.15;;
59607;SDS011;45426;44.726;10.390;2022-11-15T12:18:47;60.30;;;24.02;;
59607;SDS011;45426;44.726;10.390;2022-11-15T12:21:19;50.78;;;22.25;;
59607;SDS011;45426;44.726;10.390;2022-11-15T12:24:14;53.50;;;23.80;;
59607;SDS011;45426;44.726;10.390;2022-11-15T12:27:02;54.83;;;23.60;;
59607;SDS011;45426;44.726;10.390;2022-11-15T12:29:50;54.38;;;22.50;;
59607;SDS011;45426;44.726;10.390;2022-11-15T12:32:31;54.22;;;22.77;;
59607;SDS011;45426;44.726;10.390;2022-11-15T12:34:59;53.10;;;22.08;;
59607;SDS011;45426;44.726;10.390;2022-11-15T12:42:35;56.05;;;24.63;;
59607;SDS011;45426;44.726;10.390;2022-11-15T12:47:49;65.88;;;27.85;;
59607;SDS011;45426;44.726;10.390;2022-11-15T12:50:39;56.67;;;26.42;;
59607;SDS011;45426;44.726;10.390;2022-11-15T12:56:31;48.63;;;21.67;;
59607;SDS011;45426;44.726;10.390;2022-11-15T12:58:44;43.65;;;20.25;;
59607;SDS011;45426;44.726;10.390;2022-11-15T13:06:54;48.17;;;21.17;;
59607;SDS011;45426;44.726;10.390;2022-11-15T13:12:08;45.10;;;19.40;;
59607;SDS011;45426;44.726;10.390;2022-11-15T13:14:45;46.85;;;19.90;;
59607;SDS011;45426;44.726;10.390;2022-11-15T13:19:52;45.83;;;18.83;;
59607;SDS011;45426;44.726;10.390;2022-11-15T13:28:18;43.92;;;19.13;;
59607;SDS011;45426;44.726;10.390;2022-11-15T13:33:24;41.20;;;18.63;;
59607;SDS011;45426;44.726;10.390;2022-11-15T13:35:56;45.10;;;21.98;;
59607;SDS011;45426;44.726;10.390;2022-11-15T13:40:49;44.25;;;20.88;;
59607;SDS011;45426;44.726;10.390;2022-11-15T13:43:31;43.58;;;19.50;;
59607;SDS011;45426;44.726;10.390;2022-11-15T13:48:34;40.90;;;18.13;;
59607;SDS011;45426;44.726;10.390;2022-11-15T13:51:04;44.60;;;20.83;;
59607;SDS011;45426;44.726;10.390;2022-11-15T13:53:52;42.08;;;18.90;;
59607;SDS011;45426;44.726;10.390;2022-11-15T13:56:28;44.75;;;19.92;;
59607;SDS011;45426;44.726;10.390;2022-11-15T13:58:55;42.72;;;18.83;;
59607;SDS011;45426;44.726;10.390;2022-11-15T14:01:21;43.47;;;19.48;;
59607;SDS011;45426;44.726;10.390;2022-11-15T14:03:52;40.88;;;18.88;;
59607;SDS011;45426;44.726;10.390;2022-11-15T14:06:21;44.45;;;19.70;;
59607;SDS011;45426;44.726;10.390;2022-11-15T14:09:00;37.22;;;17.70;;
59607;SDS011;45426;44.726;10.390;2022-11-15T14:11:52;38.95;;;18.00;;
59607;SDS011;45426;44.726;10.390;2022-11-15T14:14:23;38.67;;;17.75;;
59607;SDS011;45426;44.726;10.390;2022-11-15T14:16:51;42.25;;;18.55;;
59607;SDS011;45426;44.726;10.390;2022-11-15T14:27:37;36.97;;;16.60;;
59607;SDS011;45426;44.726;10.390;2022-11-15T14:30:03;40.47;;;18.10;;
59607;SDS011;45426;44.726;10.390;2022-11-15T14:32:43;36.50;;;17.27;;
59607;SDS011;45426;44.726;10.390;2022-11-15T14:35:17;38.63;;;16.60;;
59607;SDS011;45426;44.726;10.390;2022-11-15T14:37:44;41.95;;;18.17;;
59607;SDS011;45426;44.726;10.390;2022-11-15T14:40:11;38.60;;;17.17;;
59607;SDS011;45426;44.726;10.390;2022-11-15T14:42:39;45.70;;;20.40;;
59607;SDS011;45426;44.726;10.390;2022-11-15T14:45:18;44.95;;;19.10;;
59607;SDS011;45426;44.726;10.390;2022-11-15T14:47:45;38.75;;;16.90;;
59607;SDS011;45426;44.726;10.390;2022-11-15T14:50:18;43.85;;;18.10;;
59607;SDS011;45426;44.726;10.390;2022-11-15T14:52:44;43.85;;;19.40;;
59607;SDS011;45426;44.726;10.390;2022-11-15T14:57:52;45.17;;;21.08;;
59607;SDS011;45426;44.726;10.390;2022-11-15T15:00:18;41.63;;;19.15;;
59607;SDS011;45426;44.726;10.390;2022-11-15T15:02:45;39.45;;;17.52;;
59607;SDS011;45426;44.726;10.390;2022-11-15T15:05:18;38.28;;;18.42;;
59607;SDS011;45426;44.726;10.390;2022-11-15T15:07:46;46.95;;;21.48;;
59607;SDS011;45426;44.726;10.390;2022-11-15T15:10:12;45.28;;;19.75;;
59607;SDS011;45426;44.726;10.390;2022-11-15T15:12:39;42.35;;;18.58;;
59607;SDS011;45426;44.726;10.390;2022-11-15T15:15:17;40.00;;;19.13;;
59607;SDS011;45426;44.726;10.390;2022-11-15T15:17:47;38.47;;;18.08;;
59607;SDS011;45426;44.726;10.390;2022-11-15T15:20:12;35.55;;;18.13;;
59607;SDS011;45426;44.726;10.390;2022-11-15T15:22:38;38.50;;;18.40;;
59607;SDS011;45426;44.726;10.390;2022-11-15T15:25:13;39.08;;;18.77;;
59607;SDS011;45426;44.726;10.390;2022-11-15T15:27:45;41.90;;;19.48;;
59607;SDS011;45426;44.726;10.390;2022-11-15T15:30:10;41.78;;;18.05;;
59607;SDS011;45426;44.726;10.390;2022-11-15T15:32:36;37.55;;;17.60;;
59607;SDS011;45426;44.726;10.390;2022-11-15T15:35:02;41.55;;;18.27;;
59607;SDS011;45426;44.726;10.390;2022-11-15T15:37:27;41.35;;;18.08;;
59607;SDS011;45426;44.726;10.390;2022-11-15T15:39:55;39.60;;;17.73;;
59607;SDS011;45426;44.726;10.390;2022-11-15T15:42:21;40.38;;;19.48;;
59607;SDS011;45426;44.726;10.390;2022-11-15T15:44:50;40.00;;;18.90;;
59607;SDS011;45426;44.726;10.390;2022-11-15T15:47:17;36.10;;;16.77;;
59607;SDS011;45426;44.726;10.390;2022-11-15T15:49:44;37.38;;;16.85;;
59607;SDS011;45426;44.726;10.390;2022-11-15T15:52:10;38.47;;;17.98;;
59607;SDS011;45426;44.726;10.390;2022-11-15T15:54:36;40.50;;;17.38;;
59607;SDS011;45426;44.726;10.390;2022-11-15T15:57:02;40.55;;;17.25;;
59607;SDS011;45426;44.726;10.390;2022-11-15T15:59:28;42.53;;;17.50;;
59607;SDS011;45426;44.726;10.390;2022-11-15T16:01:53;39.30;;;17.42;;
59607;SDS011;45426;44.726;10.390;2022-11-15T16:04:19;39.22;;;17.58;;
59607;SDS011;45426;44.726;10.390;2022-11-15T16:06:44;39.30;;;17.25;;
59607;SDS011;45426;44.726;10.390;2022-11-15T16:09:13;37.70;;;17.67;;
59607;SDS011;45426;44.726;10.390;2022-11-15T16:11:48;38.60;;;17.15;;
59607;SDS011;45426;44.726;10.390;2022-11-15T16:14:14;36.30;;;17.10;;
59607;SDS011;45426;44.726;10.390;2022-11-15T16:16:39;36.53;;;15.82;;
59607;SDS011;45426;44.726;10.390;2022-11-15T16:19:05;40.38;;;16.38;;
59607;SDS011;45426;44.726;10.390;2022-11-15T16:21:30;36.88;;;16.25;;
59607;SDS011;45426;44.726;10.390;2022-11-15T16:23:56;41.35;;;17.30;;
59607;SDS011;45426;44.726;10.390;2022-11-15T16:26:23;43.72;;;18.35;;
59607;SDS011;45426;44.726;10.390;2022-11-15T16:28:50;45.25;;;19.15;;
59607;SDS011;45426;44.726;10.390;2022-11-15T16:31:17;71.53;;;29.27;;
59607;SDS011;45426;44.726;10.390;2022-11-15T16:33:45;61.45;;;26.27;;
59607;SDS011;45426;44.726;10.390;2022-11-15T16:36:30;59.60;;;26.83;;
59607;SDS011;45426;44.726;10.390;2022-11-15T16:38:58;50.38;;;22.73;;
59607;SDS011;45426;44.726;10.390;2022-11-15T16:41:24;45.35;;;19.92;;